Weather at Montebello Seaplane Base

Public forecast

Using degrees Celsius for public forecast. Weather courtesy of forecast.io.

Closest aviation weather report (METAR) to Montebello Seaplane Base

Closest report is Ottawa / Gatineau Airport, 25.5 nm (47.3 km) WSW.

2024/05/22 16:00 (retrieved 52 minutes ago)

CYND 221600Z 13006KT 100V220 12SM FEW020 SCT078 SCT240 24/20 A2979 RMK CU1AC3CI1 CU TR SLP090 DENSITY ALT 1500FT

Closest aviation forecast (TAF) to Montebello Seaplane Base

Closest forecast is Ottawa / Gatineau Airport, 25.5 nm (47.3 km) WSW.

2024/05/22 13:42 (retrieved 3 hours ago)

TAF CYND 221240Z 2213/2301 VRB03KT 2SM BR BKN004 BECMG 2213/2215 P6SM NSW SKC FM222000 23008KT P6SM SCT060 FM222200 23008KT P6SM BKN060 TEMPO 2222/2301 P6SM -SHRA PROB30 2222/2301 VRB20G35KT 3SM TSRA BR BKN020 OVC060CB RMK NXT FCST BY 221800Z